Time;durP1;ratioP1;P1;durP2;ratioP2;P2;SDS_P1;SDS_P2;PMS_P1;PMS_P2;Temp;Humidity;BMP_temperature;BMP_pressure;BME280_temperature;BME280_humidity;BME280_pressure;Samples;Min_cycle;Max_cycle;Signal;HPM_P1;HPM_P2
2022/03/07 00:01:15;;;;;;;12.60;7.03;;;;;;;-1.58;76.82;102675.50;4979417;28;20034;-67
2022/03/07 00:03:41;;;;;;;11.23;6.25;;;;;;;-1.60;76.58;102674.56;4985043;28;20042;-65
2022/03/07 00:06:07;;;;;;;10.43;6.68;;;;;;;-1.62;77.71;102675.47;4983867;28;20372;-67
2022/03/07 00:08:32;;;;;;;14.68;6.45;;;;;;;-1.65;77.04;102672.75;4981693;28;20137;-65
2022/03/07 00:10:58;;;;;;;14.23;6.90;;;;;;;-1.66;77.33;102674.53;4988357;28;20130;-72
2022/03/07 00:13:24;;;;;;;9.38;6.60;;;;;;;-1.66;77.90;102673.66;4990611;28;20042;-72
2022/03/07 00:15:49;;;;;;;11.88;6.63;;;;;;;-1.66;77.63;102677.22;4986903;28;20081;-71
2022/03/07 00:18:15;;;;;;;14.75;7.15;;;;;;;-1.67;78.68;102674.53;4991445;28;20045;-67
2022/03/07 00:20:40;;;;;;;12.88;6.82;;;;;;;-1.72;77.81;102665.63;4993109;28;20034;-66
2022/03/07 00:23:05;;;;;;;9.55;6.45;;;;;;;-1.77;78.15;102667.31;5004601;28;20038;-70
2022/03/07 00:25:31;;;;;;;13.45;6.65;;;;;;;-1.79;78.31;102670.00;4994835;28;20092;-71
2022/03/07 00:27:56;;;;;;;11.90;6.35;;;;;;;-1.82;78.75;102670.88;4994471;28;20516;-64
2022/03/07 00:30:22;;;;;;;11.73;6.70;;;;;;;-1.88;78.85;102667.25;4990865;28;20037;-72
2022/03/07 00:32:48;;;;;;;13.38;7.10;;;;;;;-1.87;78.79;102679.69;4984604;28;21474;-71
2022/03/07 00:35:16;;;;;;;11.55;7.25;;;;;;;-1.94;78.95;102678.75;4982962;28;20050;-70
2022/03/07 00:37:41;;;;;;;10.60;6.10;;;;;;;-1.97;78.54;102688.50;4985695;28;20811;-66
2022/03/07 00:40:10;;;;;;;11.95;6.18;;;;;;;-2.01;78.10;102681.34;4994449;28;20034;-66
2022/03/07 00:42:37;;;;;;;10.50;6.97;;;;;;;-2.03;79.20;102683.13;4994564;28;20045;-71
2022/03/07 00:45:07;;;;;;;12.98;7.25;;;;;;;-2.07;79.35;102685.75;4992338;28;20038;-71
2022/03/07 00:47:34;;;;;;;10.98;6.07;;;;;;;-2.09;78.85;102681.31;4988077;28;20038;-66
2022/03/07 00:49:59;;;;;;;13.40;6.45;;;;;;;-2.15;79.24;102684.78;4986234;28;20124;-65
2022/03/07 00:52:24;;;;;;;10.02;6.50;;;;;;;-2.20;79.45;102680.28;4983278;28;20114;-70
2022/03/07 00:54:50;;;;;;;13.68;7.35;;;;;;;-2.24;80.14;102682.03;4993739;28;20486;-65
2022/03/07 00:57:15;;;;;;;13.57;7.05;;;;;;;-2.27;80.17;102681.13;4988095;28;20065;-65
2022/03/07 00:59:41;;;;;;;12.95;7.45;;;;;;;-2.30;79.78;102681.97;4993178;28;20062;-71
2022/03/07 01:02:06;;;;;;;11.50;6.57;;;;;;;-2.32;79.14;102683.75;4991797;28;20026;-65
2022/03/07 01:04:32;;;;;;;11.40;6.60;;;;;;;-2.37;78.75;102683.69;4982177;28;20234;-71
2022/03/07 01:06:57;;;;;;;9.63;6.40;;;;;;;-2.40;79.49;102693.41;4988269;28;20133;-70
2022/03/07 01:09:23;;;;;;;10.77;5.60;;;;;;;-2.44;79.10;102689.81;4994540;28;20121;-66
2022/03/07 01:11:48;;;;;;;15.15;6.63;;;;;;;-2.46;80.41;102694.25;4979243;28;20041;-66
2022/03/07 01:14:14;;;;;;;10.95;6.63;;;;;;;-2.49;80.55;102696.88;5007473;28;20121;-65
2022/03/07 01:16:39;;;;;;;12.93;7.45;;;;;;;-2.54;80.17;102698.59;4994385;28;20033;-72
2022/03/07 01:19:05;;;;;;;14.32;7.30;;;;;;;-2.53;80.25;102695.03;4997523;28;20496;-65
2022/03/07 01:21:31;;;;;;;13.20;6.15;;;;;;;-2.54;80.78;102685.28;4986622;28;20041;-71
2022/03/07 01:23:56;;;;;;;15.13;7.00;;;;;;;-2.54;79.90;102692.38;4984765;28;20026;-71
2022/03/07 01:26:21;;;;;;;13.07;7.45;;;;;;;-2.54;81.19;102681.72;4993852;28;20065;-65
2022/03/07 01:28:47;;;;;;;10.63;6.40;;;;;;;-2.56;80.75;102687.03;4987249;28;20058;-66
2022/03/07 01:31:12;;;;;;;11.00;6.70;;;;;;;-2.56;80.68;102684.38;4990337;28;20044;-70
2022/03/07 01:33:37;;;;;;;13.10;7.25;;;;;;;-2.57;80.27;102682.56;4985108;28;20081;-70
2022/03/07 01:36:03;;;;;;;11.98;7.15;;;;;;;-2.58;80.57;102687.00;5003447;28;20042;-70
2022/03/07 01:38:28;;;;;;;14.15;7.85;;;;;;;-2.63;81.14;102680.72;4972638;28;20375;-67
2022/03/07 01:40:55;;;;;;;10.40;6.55;;;;;;;-2.65;81.09;102687.81;5007490;28;20104;-72
2022/03/07 01:43:20;;;;;;;10.65;6.93;;;;;;;-2.69;80.88;102682.44;5009586;28;20129;-66
2022/03/07 01:45:45;;;;;;;12.00;7.07;;;;;;;-2.75;80.57;102677.94;4986176;28;20556;-69
2022/03/07 01:48:11;;;;;;;12.50;6.88;;;;;;;-2.78;80.15;102685.00;4973897;28;20035;-71
2022/03/07 01:50:36;;;;;;;15.50;7.15;;;;;;;-2.81;81.20;102680.50;4988890;28;20034;-66
2022/03/07 01:53:03;;;;;;;14.98;6.97;;;;;;;-2.84;81.02;102683.16;4993888;28;20505;-65
2022/03/07 01:55:29;;;;;;;9.40;6.40;;;;;;;-2.86;81.34;102683.13;5008860;28;20389;-66
2022/03/07 01:58:00;;;;;;;13.13;7.35;;;;;;;-2.88;82.11;102684.00;4986317;28;20165;-65
2022/03/07 02:00:27;;;;;;;12.35;7.47;;;;;;;-2.91;82.37;102682.16;4996731;28;20031;-65
2022/03/07 02:02:54;;;;;;;13.98;7.50;;;;;;;-2.93;82.78;102683.03;4984953;28;20460;-70
2022/03/07 02:05:28;;;;;;;22.75;8.63;;;;;;;-2.96;82.98;102680.31;4988685;28;20041;-71
2022/03/07 02:07:59;;;;;;;15.50;7.35;;;;;;;-3.00;82.31;102676.72;4987175;28;20038;-65
2022/03/07 02:10:27;;;;;;;18.33;8.20;;;;;;;-3.02;82.83;102675.81;4989004;28;20536;-72
2022/03/07 02:12:54;;;;;;;14.32;7.82;;;;;;;-3.03;82.93;102676.69;4988840;28;20117;-65
2022/03/07 02:15:19;;;;;;;14.65;7.97;;;;;;;-3.05;83.62;102670.44;4984862;28;20121;-70
2022/03/07 02:17:45;;;;;;;15.38;8.85;;;;;;;-3.04;84.07;102663.34;4977596;28;20410;-71
2022/03/07 02:20:13;;;;;;;14.20;7.95;;;;;;;-3.02;83.99;102667.84;4991212;28;20022;-64
2022/03/07 02:22:38;;;;;;;15.52;7.78;;;;;;;-2.99;84.28;102665.19;5000909;28;20045;-71
2022/03/07 02:25:05;;;;;;;12.50;7.70;;;;;;;-2.98;84.29;102666.13;5003022;28;20247;-64
2022/03/07 02:27:34;;;;;;;14.05;7.70;;;;;;;-3.00;84.00;102658.09;4998618;28;20180;-66
2022/03/07 02:30:03;;;;;;;19.55;8.68;;;;;;;-2.98;84.20;102658.13;5003100;28;20037;-65
2022/03/07 02:32:28;;;;;;;15.63;8.00;;;;;;;-2.99;83.71;102664.31;5004270;28;20028;-65
2022/03/07 02:34:55;;;;;;;14.75;9.18;;;;;;;-3.00;84.29;102658.09;4984705;28;20034;-65
2022/03/07 02:37:20;;;;;;;14.40;8.20;;;;;;;-3.01;84.42;102658.06;4982009;28;20409;-66
2022/03/07 02:39:52;;;;;;;15.10;7.93;;;;;;;-3.06;84.38;102652.69;4993208;28;20034;-65
2022/03/07 02:42:18;;;;;;;14.07;8.40;;;;;;;-3.08;84.71;102658.00;5005390;28;20493;-65
2022/03/07 02:44:43;;;;;;;16.33;8.60;;;;;;;-3.10;84.83;102672.16;5007988;28;20034;-65
2022/03/07 02:47:13;;;;;;;18.67;8.57;;;;;;;-3.14;85.05;102665.88;5001188;28;20022;-71
2022/03/07 02:49:38;;;;;;;15.55;8.40;;;;;;;-3.15;84.85;102665.88;4997873;28;20069;-64
2022/03/07 02:52:06;;;;;;;15.50;8.07;;;;;;;-3.13;85.31;102672.09;4977011;28;20085;-72
2022/03/07 02:54:32;;;;;;;18.13;9.23;;;;;;;-3.14;85.31;102665.88;5007908;28;20079;-64
2022/03/07 02:56:57;;;;;;;12.93;8.07;;;;;;;-3.14;85.06;102663.22;5008954;28;20432;-70
2022/03/07 02:59:22;;;;;;;14.82;7.82;;;;;;;-3.15;84.76;102655.25;4996568;28;20466;-67
2022/03/07 03:01:48;;;;;;;16.55;8.15;;;;;;;-3.14;85.06;102657.00;4990721;28;20034;-70
2022/03/07 03:04:13;;;;;;;14.05;8.07;;;;;;;-3.16;85.43;102661.44;4969511;28;20030;-64
2022/03/07 03:06:39;;;;;;;17.17;8.15;;;;;;;-3.18;84.68;102663.16;4997538;28;20049;-65
2022/03/07 03:09:04;;;;;;;13.90;7.72;;;;;;;-3.23;84.06;102657.78;5003458;28;20559;-65
2022/03/07 03:11:31;;;;;;;17.35;9.00;;;;;;;-3.25;85.26;102656.00;5008819;28;20034;-71
2022/03/07 03:13:57;;;;;;;14.38;8.07;;;;;;;-3.27;85.34;102655.94;5007441;28;20064;-65
2022/03/07 03:16:22;;;;;;;17.15;8.98;;;;;;;-3.29;85.27;102654.16;4996061;28;20041;-70
2022/03/07 03:18:48;;;;;;;17.75;8.18;;;;;;;-3.28;85.20;102662.16;4975878;28;20030;-65
2022/03/07 03:21:13;;;;;;;15.65;8.68;;;;;;;-3.29;85.71;102656.81;4992739;28;20039;-65
2022/03/07 03:23:38;;;;;;;13.23;8.23;;;;;;;-3.31;84.53;102653.22;5006249;28;20446;-71
2022/03/07 03:26:04;;;;;;;15.38;9.27;;;;;;;-3.33;84.65;102663.84;5007160;28;20504;-71
2022/03/07 03:28:29;;;;;;;14.93;8.07;;;;;;;-3.35;84.32;102655.88;5003581;28;20588;-70
2022/03/07 03:30:55;;;;;;;17.30;7.75;;;;;;;-3.33;85.16;102662.09;5000754;28;20196;-72
2022/03/07 03:33:21;;;;;;;17.55;8.57;;;;;;;-3.30;85.13;102665.69;4991943;28;20027;-66
2022/03/07 03:35:47;;;;;;;16.38;8.68;;;;;;;-3.27;85.08;102663.03;5006141;28;20503;-69
2022/03/07 03:38:12;;;;;;;12.27;7.90;;;;;;;-3.28;84.52;102663.91;4993872;28;20145;-71
2022/03/07 03:40:37;;;;;;;13.80;8.30;;;;;;;-3.30;85.67;102663.91;5008110;28;20057;-70
2022/03/07 03:43:03;;;;;;;16.63;9.57;;;;;;;-3.27;85.66;102665.69;5008419;28;20079;-72
2022/03/07 03:45:29;;;;;;;18.05;8.85;;;;;;;-3.33;85.43;102658.53;4989457;28;20541;-64
2022/03/07 03:47:54;;;;;;;17.10;8.65;;;;;;;-3.32;85.15;102670.97;4992160;28;20049;-65
2022/03/07 03:50:20;;;;;;;15.30;8.18;;;;;;;-3.31;85.40;102659.47;4997484;28;20046;-65
2022/03/07 03:52:45;;;;;;;20.20;9.10;;;;;;;-3.30;84.51;102661.25;4985567;28;20504;-70
2022/03/07 03:55:12;;;;;;;14.95;9.13;;;;;;;-3.30;85.09;102671.91;5008227;28;20048;-70
2022/03/07 03:57:39;;;;;;;18.33;8.32;;;;;;;-3.33;84.99;102661.19;5007886;28;20037;-70
2022/03/07 04:00:10;;;;;;;13.48;8.45;;;;;;;-3.34;84.57;102673.59;4996755;28;20513;-70
2022/03/07 04:02:42;;;;;;;15.55;8.85;;;;;;;-3.36;85.63;102671.78;4991641;28;20045;-68
2022/03/07 04:05:07;;;;;;;17.08;8.07;;;;;;;-3.39;85.34;102679.75;4988720;28;20116;-68
2022/03/07 04:07:33;;;;;;;15.40;9.05;;;;;;;-3.41;84.58;102669.06;4981986;28;20138;-69
2022/03/07 04:09:58;;;;;;;16.40;9.07;;;;;;;-3.47;84.36;102671.63;5007830;28;20133;-71
2022/03/07 04:12:23;;;;;;;16.38;8.63;;;;;;;-3.48;83.86;102669.84;4991047;28;20038;-66
2022/03/07 04:14:49;;;;;;;16.38;8.90;;;;;;;-3.49;84.21;102670.75;5008406;28;20095;-64
2022/03/07 04:17:14;;;;;;;18.20;8.45;;;;;;;-3.50;84.96;102666.25;4987442;28;20058;-71
2022/03/07 04:19:39;;;;;;;16.38;8.52;;;;;;;-3.49;85.80;102662.75;4980618;28;20446;-71
2022/03/07 04:22:05;;;;;;;18.60;9.40;;;;;;;-3.44;86.03;102673.47;4996661;28;20030;-66
2022/03/07 04:24:31;;;;;;;15.00;8.70;;;;;;;-3.42;85.45;102666.38;4999042;28;20046;-65
2022/03/07 04:26:57;;;;;;;20.83;9.45;;;;;;;-3.43;85.62;102661.94;4984835;28;20505;-66
2022/03/07 04:29:23;;;;;;;18.73;9.43;;;;;;;-3.44;85.38;102662.81;4997797;28;20117;-68
2022/03/07 04:31:48;;;;;;;17.58;9.30;;;;;;;-3.48;85.16;102667.19;5003334;28;20410;-65
2022/03/07 04:34:13;;;;;;;14.20;8.68;;;;;;;-3.50;85.83;102668.03;4996369;28;20065;-65
2022/03/07 04:36:40;;;;;;;15.40;9.00;;;;;;;-3.51;85.55;102663.59;4991794;28;20054;-64
2022/03/07 04:39:08;;;;;;;18.35;9.65;;;;;;;-3.53;86.16;102663.56;5007139;28;20038;-71
2022/03/07 04:41:34;;;;;;;15.00;7.97;;;;;;;-3.54;85.88;102660.88;5006554;28;20045;-71
2022/03/07 04:43:59;;;;;;;18.98;9.45;;;;;;;-3.56;85.63;102666.19;4988078;28;20084;-70
2022/03/07 04:46:26;;;;;;;15.93;8.50;;;;;;;-3.60;85.79;102667.88;5004466;28;20485;-65
2022/03/07 04:48:51;;;;;;;21.25;9.43;;;;;;;-3.58;85.84;102670.59;4990833;28;20046;-65
2022/03/07 04:51:17;;;;;;;20.02;9.77;;;;;;;-3.59;85.81;102658.19;4998264;28;20190;-64
2022/03/07 04:53:42;;;;;;;24.02;9.48;;;;;;;-3.58;85.11;102667.06;4995750;28;20204;-71
2022/03/07 04:56:09;;;;;;;16.67;9.45;;;;;;;-3.60;85.80;102669.66;4980665;28;20041;-65
2022/03/07 04:58:34;;;;;;;15.88;8.77;;;;;;;-3.60;86.10;102667.00;5000795;28;20038;-70
2022/03/07 05:01:00;;;;;;;19.58;9.30;;;;;;;-3.64;85.91;102667.81;5002090;28;20023;-71
2022/03/07 05:03:25;;;;;;;16.77;9.23;;;;;;;-3.61;85.42;102670.53;4979101;28;20038;-69
2022/03/07 05:05:51;;;;;;;16.83;9.60;;;;;;;-3.56;86.17;102668.84;5002131;28;20021;-71
2022/03/07 05:08:16;;;;;;;17.40;10.07;;;;;;;-3.56;85.72;102662.63;4987385;28;20069;-71
2022/03/07 05:10:43;;;;;;;17.05;9.50;;;;;;;-3.58;85.68;102664.38;5009134;28;20696;-65
2022/03/07 05:13:09;;;;;;;14.88;8.85;;;;;;;-3.60;86.01;102661.69;5011024;28;20030;-65
2022/03/07 05:15:34;;;;;;;18.08;8.95;;;;;;;-3.58;86.67;102659.06;5010862;28;20041;-66
2022/03/07 05:18:00;;;;;;;15.88;9.35;;;;;;;-3.61;85.65;102658.13;4983231;28;20045;-70
2022/03/07 05:20:26;;;;;;;18.13;9.63;;;;;;;-3.60;86.37;102661.69;4996989;28;20026;-64
2022/03/07 05:22:52;;;;;;;22.95;9.43;;;;;;;-3.64;84.65;102667.81;5000165;28;20033;-71
2022/03/07 05:25:19;;;;;;;16.63;9.38;;;;;;;-3.65;85.83;102664.28;5011420;28;20397;-65
2022/03/07 05:27:45;;;;;;;19.63;9.10;;;;;;;-3.64;85.64;102659.84;5010840;28;20482;-66
2022/03/07 05:30:15;;;;;;;18.13;9.82;;;;;;;-3.68;86.06;102666.00;5004564;28;20044;-69
2022/03/07 05:32:43;;;;;;;21.60;10.65;;;;;;;-3.73;86.59;102665.94;4993923;28;20121;-68
2022/03/07 05:35:08;;;;;;;20.13;10.10;;;;;;;-3.75;86.88;102661.47;4991531;28;20034;-68
2022/03/07 05:37:34;;;;;;;17.55;9.45;;;;;;;-3.76;86.55;102665.88;4999736;28;20382;-69
2022/03/07 05:39:59;;;;;;;17.58;9.73;;;;;;;-3.80;86.65;102658.72;5000032;28;20042;-64
2022/03/07 05:42:24;;;;;;;21.88;10.18;;;;;;;-3.77;87.05;102666.75;5009742;28;20049;-64
2022/03/07 05:44:50;;;;;;;19.35;9.98;;;;;;;-3.78;87.44;102661.41;5010923;28;20113;-65
2022/03/07 05:47:15;;;;;;;18.05;8.75;;;;;;;-3.77;86.59;102663.22;4995122;28;20064;-66
2022/03/07 05:49:40;;;;;;;18.17;9.98;;;;;;;-3.75;85.41;102665.00;4994986;28;20022;-70
2022/03/07 05:52:06;;;;;;;16.95;9.75;;;;;;;-3.78;85.71;102662.28;4989550;28;20047;-70
2022/03/07 05:54:31;;;;;;;21.10;9.85;;;;;;;-3.74;86.60;102663.25;4995767;28;20156;-64
2022/03/07 05:56:57;;;;;;;17.60;10.20;;;;;;;-3.74;86.54;102665.91;4988637;28;20065;-69
2022/03/07 05:59:22;;;;;;;22.95;9.93;;;;;;;-3.75;86.67;102672.97;4989604;28;20043;-68
2022/03/07 06:01:47;;;;;;;16.25;9.70;;;;;;;-3.76;86.98;102673.88;4994890;28;20534;-71
2022/03/07 06:04:13;;;;;;;18.73;9.75;;;;;;;-3.81;86.67;102674.66;4979642;28;20442;-71
2022/03/07 06:06:38;;;;;;;20.27;9.77;;;;;;;-3.79;87.13;102688.88;4984007;28;20450;-71
2022/03/07 06:09:04;;;;;;;20.50;10.38;;;;;;;-3.79;87.31;102684.44;4989903;28;20053;-71
2022/03/07 06:11:29;;;;;;;21.38;10.45;;;;;;;-3.77;87.27;102687.13;4985782;28;20066;-64
2022/03/07 06:13:54;;;;;;;20.70;9.90;;;;;;;-3.78;87.06;102693.31;4993491;28;20393;-70
2022/03/07 06:16:20;;;;;;;18.38;9.95;;;;;;;-3.80;86.94;102697.72;4979738;28;20652;-70
2022/03/07 06:18:45;;;;;;;20.98;10.75;;;;;;;-3.80;87.20;102701.25;4985064;28;20525;-67
2022/03/07 06:21:11;;;;;;;18.70;9.57;;;;;;;-3.80;87.26;102701.25;4975636;28;20022;-69
2022/03/07 06:23:36;;;;;;;21.00;10.25;;;;;;;-3.78;87.16;102706.59;5005060;28;20370;-65
2022/03/07 06:26:05;;;;;;;22.80;11.23;;;;;;;-3.77;87.72;102705.75;4987169;28;20117;-65
2022/03/07 06:28:31;;;;;;;22.40;10.27;;;;;;;-3.77;87.13;102704.00;4988969;28;20034;-64
2022/03/07 06:30:56;;;;;;;22.52;11.63;;;;;;;-3.75;87.00;102704.00;4993718;28;20369;-70
2022/03/07 06:33:21;;;;;;;21.85;11.35;;;;;;;-3.69;87.76;102709.41;4995637;28;20034;-65
2022/03/07 06:35:47;;;;;;;21.35;10.90;;;;;;;-3.67;87.52;102711.25;5008144;28;20473;-68
2022/03/07 06:38:12;;;;;;;20.75;10.70;;;;;;;-3.65;87.52;102712.16;5004794;28;20115;-65
2022/03/07 06:40:38;;;;;;;29.73;10.95;;;;;;;-3.60;87.81;102709.56;5004934;28;20037;-65
2022/03/07 06:43:03;;;;;;;20.95;11.02;;;;;;;-3.58;87.22;102717.59;4987703;28;20073;-69
2022/03/07 06:45:30;;;;;;;20.23;10.48;;;;;;;-3.57;86.88;102722.03;4983286;28;20042;-69
2022/03/07 06:47:56;;;;;;;23.63;11.35;;;;;;;-3.54;87.80;102712.34;4986912;28;20049;-70
2022/03/07 06:50:21;;;;;;;19.70;11.02;;;;;;;-3.48;87.58;102712.41;5006474;28;20042;-65
2022/03/07 06:52:46;;;;;;;22.60;11.68;;;;;;;-3.43;87.64;102723.13;4996282;28;20037;-64
2022/03/07 06:55:13;;;;;;;23.33;10.75;;;;;;;-3.40;87.82;102723.19;5004706;28;20466;-64
2022/03/07 06:57:39;;;;;;;25.52;13.05;;;;;;;-3.34;87.99;102728.59;4993486;28;20038;-64
2022/03/07 07:00:08;;;;;;;19.55;11.05;;;;;;;-3.27;87.92;102729.56;4985070;28;20096;-71
2022/03/07 07:02:34;;;;;;;20.88;11.13;;;;;;;-3.22;87.78;102727.88;4976551;28;20034;-64
2022/03/07 07:05:02;;;;;;;24.98;11.23;;;;;;;-3.16;87.42;102720.00;4986474;28;20130;-67
2022/03/07 07:07:27;;;;;;;23.35;11.23;;;;;;;-3.08;87.14;102720.97;4981321;28;20378;-71
2022/03/07 07:09:53;;;;;;;20.50;11.02;;;;;;;-2.97;87.17;102729.13;5006608;28;20041;-70
2022/03/07 07:12:18;;;;;;;23.50;11.15;;;;;;;-2.59;87.01;102727.84;5003537;28;20409;-64
2022/03/07 07:14:43;;;;;;;24.02;12.63;;;;;;;-1.77;85.58;102718.94;4998629;28;20133;-70
2022/03/07 07:17:09;;;;;;;23.75;11.57;;;;;;;-1.40;83.29;102719.19;4979013;28;20538;-71
2022/03/07 07:19:34;;;;;;;22.00;11.27;;;;;;;-1.41;82.63;102710.28;4978985;28;20038;-71
2022/03/07 07:22:00;;;;;;;24.27;11.23;;;;;;;-1.22;82.58;102718.44;4987866;28;20039;-65
2022/03/07 07:24:25;;;;;;;22.20;11.55;;;;;;;-1.10;81.86;102715.84;4990328;28;20181;-65
2022/03/07 07:26:50;;;;;;;20.63;11.57;;;;;;;-0.82;81.16;102709.75;4989746;28;20042;-65
2022/03/07 07:29:16;;;;;;;20.08;11.48;;;;;;;-0.54;81.21;102716.09;4984804;28;20026;-66
2022/03/07 07:31:41;;;;;;;22.52;10.95;;;;;;;-0.12;79.81;102714.44;4986034;28;20036;-71
2022/03/07 07:34:07;;;;;;;21.15;10.93;;;;;;;0.39;78.45;102703.78;4973837;28;20035;-65
2022/03/07 07:36:32;;;;;;;22.65;11.07;;;;;;;1.08;75.28;102711.69;5000946;28;20486;-70
2022/03/07 07:38:57;;;;;;;24.92;11.57;;;;;;;1.88;74.59;102707.72;4987670;28;20042;-70
2022/03/07 07:41:22;;;;;;;22.13;10.65;;;;;;;2.64;71.79;102708.00;4986790;28;20409;-68
2022/03/07 07:43:49;;;;;;;20.60;10.75;;;;;;;3.32;69.24;102709.06;5000016;28;20035;-71
2022/03/07 07:46:15;;;;;;;19.02;10.95;;;;;;;4.09;66.64;102712.47;4983653;28;20038;-64
2022/03/07 07:48:40;;;;;;;18.13;10.00;;;;;;;4.59;63.37;102708.03;4984543;28;20057;-71
2022/03/07 07:51:06;;;;;;;18.77;9.65;;;;;;;4.12;63.58;102716.91;4996065;28;20072;-70
2022/03/07 07:53:32;;;;;;;17.45;10.60;;;;;;;3.63;65.04;102720.31;4990441;28;20038;-66
2022/03/07 07:55:57;;;;;;;16.13;9.27;;;;;;;3.23;65.59;102718.13;4998902;28;20040;-66
2022/03/07 07:58:22;;;;;;;16.30;10.23;;;;;;;2.75;66.72;102720.47;5002810;28;20533;-69
2022/03/07 08:00:48;;;;;;;17.38;9.75;;;;;;;2.34;68.21;102723.50;4998624;28;20113;-68
2022/03/07 08:03:13;;;;;;;17.70;10.50;;;;;;;2.05;69.38;102718.34;4981243;28;20121;-66
2022/03/07 08:05:38;;;;;;;21.08;10.63;;;;;;;1.79;69.02;102719.41;4991674;28;20048;-66
2022/03/07 08:08:04;;;;;;;15.30;10.20;;;;;;;1.58;69.49;102727.56;5000738;28;20050;-71
2022/03/07 08:10:29;;;;;;;15.88;10.60;;;;;;;1.49;70.24;102728.53;4986735;28;20034;-72
2022/03/07 08:12:55;;;;;;;18.88;9.85;;;;;;;1.49;71.93;102730.28;5000725;28;20038;-65
2022/03/07 08:15:20;;;;;;;19.27;10.98;;;;;;;1.53;70.39;102730.25;4985547;28;20125;-72
2022/03/07 08:17:49;;;;;;;15.48;10.55;;;;;;;1.43;71.01;102728.53;4988700;28;20073;-65
2022/03/07 08:20:20;;;;;;;17.77;10.70;;;;;;;1.52;71.48;102739.22;4999552;28;20034;-71
2022/03/07 08:22:46;;;;;;;19.40;10.10;;;;;;;1.48;70.70;102731.19;4999167;28;20091;-72
2022/03/07 08:25:12;;;;;;;15.45;10.00;;;;;;;1.50;71.45;102732.09;5003850;28;20033;-72
2022/03/07 08:27:37;;;;;;;18.23;10.75;;;;;;;1.54;70.69;102725.81;5004136;28;20469;-65
2022/03/07 08:30:07;;;;;;;19.90;10.25;;;;;;;1.59;69.70;102723.13;4991825;28;20406;-69
2022/03/07 08:32:36;;;;;;;16.95;10.02;;;;;;;1.69;71.01;102724.84;4993058;28;20038;-66
2022/03/07 08:35:03;;;;;;;16.08;10.18;;;;;;;1.78;70.42;102720.31;4988105;28;20037;-65
2022/03/07 08:37:29;;;;;;;15.05;10.10;;;;;;;1.88;70.40;102728.31;4983685;28;20058;-65
2022/03/07 08:39:54;;;;;;;17.50;10.57;;;;;;;1.94;70.26;102729.16;4991633;28;20062;-66
2022/03/07 08:42:20;;;;;;;13.77;9.00;;;;;;;2.09;70.00;102727.25;4992148;28;20080;-65
2022/03/07 08:44:46;;;;;;;19.73;10.02;;;;;;;2.21;68.64;102733.44;5005511;28;20138;-65
2022/03/07 08:47:12;;;;;;;13.52;10.13;;;;;;;2.30;67.41;102733.38;4990053;28;20387;-71
2022/03/07 08:49:38;;;;;;;20.25;11.45;;;;;;;2.43;68.78;102730.59;4981783;28;20023;-70
2022/03/07 08:52:04;;;;;;;15.65;9.73;;;;;;;2.58;68.03;102724.19;4988248;28;20066;-69
2022/03/07 08:54:29;;;;;;;16.33;9.82;;;;;;;2.70;66.67;102721.38;4989379;28;20625;-66
2022/03/07 08:56:55;;;;;;;14.23;9.50;;;;;;;2.75;64.32;102723.16;4989448;28;20038;-69
2022/03/07 08:59:20;;;;;;;15.52;9.05;;;;;;;2.83;66.35;102714.97;5003375;28;20030;-66
2022/03/07 09:01:45;;;;;;;12.43;8.68;;;;;;;2.90;64.73;102716.72;5002380;28;20033;-72
2022/03/07 09:04:11;;;;;;;16.38;9.38;;;;;;;2.98;64.76;102717.50;4997457;28;20132;-65
2022/03/07 09:06:36;;;;;;;15.82;9.48;;;;;;;3.05;64.03;102707.59;5003698;28;20073;-66
2022/03/07 09:09:02;;;;;;;14.82;8.93;;;;;;;3.09;62.64;102713.84;4991932;28;20038;-70
2022/03/07 09:11:27;;;;;;;11.43;7.78;;;;;;;3.20;63.48;102714.59;4994402;28;20076;-71
2022/03/07 09:13:53;;;;;;;14.25;9.48;;;;;;;3.18;63.46;102716.41;4989631;28;20072;-70
2022/03/07 09:16:18;;;;;;;11.90;7.80;;;;;;;3.28;64.38;102718.06;4985916;28;20034;-65
2022/03/07 09:18:44;;;;;;;12.15;8.48;;;;;;;3.34;62.81;102715.31;4984949;28;20424;-73
2022/03/07 09:21:09;;;;;;;13.77;8.30;;;;;;;3.35;62.47;102717.06;4988170;28;20073;-70
2022/03/07 09:23:37;;;;;;;11.50;7.68;;;;;;;3.35;60.75;102711.69;4992564;28;20108;-66
2022/03/07 09:26:05;;;;;;;13.55;7.63;;;;;;;3.40;61.01;102712.53;5002036;28;20045;-65
2022/03/07 09:28:31;;;;;;;10.15;7.40;;;;;;;3.43;60.69;102707.13;4999366;28;20030;-72
2022/03/07 09:30:57;;;;;;;10.50;6.85;;;;;;;3.61;61.52;102703.31;4997405;28;20066;-66
2022/03/07 09:33:24;;;;;;;12.25;7.75;;;;;;;3.84;61.80;102700.28;4983362;28;20068;-69
2022/03/07 09:35:49;;;;;;;9.85;6.68;;;;;;;4.00;59.07;102706.31;4990802;28;20038;-72
2022/03/07 09:38:15;;;;;;;10.18;6.85;;;;;;;4.13;58.63;102702.53;4983142;28;20037;-66
2022/03/07 09:40:40;;;;;;;11.13;8.30;;;;;;;4.02;57.10;102710.78;5001144;28;20033;-66
2022/03/07 09:43:06;;;;;;;11.23;7.55;;;;;;;3.91;57.81;102701.97;5010243;28;20052;-71
2022/03/07 09:45:31;;;;;;;9.43;7.07;;;;;;;3.76;57.80;102692.31;4996183;28;20041;-66
2022/03/07 09:47:57;;;;;;;10.82;6.63;;;;;;;3.76;56.60;102702.19;4986355;28;20138;-66
2022/03/07 09:50:22;;;;;;;9.82;7.13;;;;;;;3.70;57.38;102692.41;4988847;28;20030;-70
2022/03/07 09:52:48;;;;;;;11.07;6.40;;;;;;;3.78;57.82;102695.88;4988568;28;20034;-73
2022/03/07 09:55:16;;;;;;;8.63;5.82;;;;;;;3.95;57.75;102700.13;4982811;28;20053;-73
2022/03/07 09:57:42;;;;;;;8.55;6.10;;;;;;;4.02;57.22;102688.34;5000262;28;20082;-73
2022/03/07 10:00:08;;;;;;;14.98;6.43;;;;;;;4.20;57.35;102681.78;4999659;28;20429;-72
2022/03/07 10:02:34;;;;;;;9.13;5.95;;;;;;;4.35;55.98;102679.72;4982912;28;20034;-67
2022/03/07 10:05:01;;;;;;;10.00;6.72;;;;;;;4.53;56.16;102677.63;4987752;28;20018;-73
2022/03/07 10:07:26;;;;;;;7.65;5.50;;;;;;;4.54;54.03;102684.78;4996421;28;20188;-66
2022/03/07 10:10:09;;;;;;;8.77;5.80;;;;;;;4.48;55.71;102674.13;5006884;28;20026;-73
2022/03/07 10:12:34;;;;;;;6.57;5.40;;;;;;;4.61;55.64;102670.25;5004290;28;20053;-66
2022/03/07 10:15:11;;;;;;;8.52;6.10;;;;;;;4.59;56.73;102674.81;4994509;28;20034;-73
2022/03/07 10:17:40;;;;;;;8.98;6.07;;;;;;;4.64;54.59;102667.53;4988995;28;20040;-68
2022/03/07 10:20:06;;;;;;;9.35;5.82;;;;;;;4.85;55.71;102671.63;5004003;28;20540;-73
2022/03/07 10:22:32;;;;;;;8.02;5.65;;;;;;;5.03;54.92;102668.56;4987520;28;20033;-67
2022/03/07 10:25:08;;;;;;;8.95;6.15;;;;;;;5.24;54.78;102672.63;4991500;28;20038;-74
2022/03/07 10:27:37;;;;;;;8.25;5.50;;;;;;;5.38;54.40;102662.44;4993671;28;20397;-73
2022/03/07 10:30:08;;;;;;;9.65;6.07;;;;;;;5.41;52.20;102657.88;4986875;28;20037;-73
2022/03/07 10:32:34;;;;;;;7.95;6.18;;;;;;;5.52;53.22;102659.44;4979856;28;20045;-68
2022/03/07 10:34:59;;;;;;;9.60;5.30;;;;;;;5.58;51.29;102659.28;4984786;28;20038;-67
2022/03/07 10:37:39;;;;;;;7.72;5.03;;;;;;;5.44;54.00;102664.09;4986565;28;20117;-67
2022/03/07 10:40:18;;;;;;;7.35;5.65;;;;;;;5.56;54.32;102646.75;4988802;28;20034;-74
2022/03/07 10:42:45;;;;;;;8.00;4.88;;;;;;;5.44;50.68;102650.63;4987706;28;20046;-68
2022/03/07 10:45:12;;;;;;;7.60;5.10;;;;;;;5.29;51.34;102646.44;4989663;28;20038;-67
2022/03/07 10:47:38;;;;;;;6.18;4.60;;;;;;;5.44;51.51;102633.53;4985897;28;20096;-74
2022/03/07 10:50:04;;;;;;;7.38;4.47;;;;;;;5.50;51.30;102628.91;4986856;28;20038;-74
2022/03/07 10:52:41;;;;;;;7.85;5.50;;;;;;;5.60;53.81;102632.28;4980880;28;20088;-66
2022/03/07 10:55:09;;;;;;;6.50;4.75;;;;;;;5.83;50.59;102615.53;4986696;28;20121;-73
2022/03/07 10:57:44;;;;;;;7.32;4.45;;;;;;;5.77;49.93;102613.84;4988077;28;20073;-67
2022/03/07 11:00:17;;;;;;;8.50;4.82;;;;;;;5.93;52.06;102610.84;4989020;28;20034;-71
2022/03/07 11:02:46;;;;;;;;;;;;;;;6.10;50.87;102609.44;4977862;28;20241;-73
2022/03/07 11:05:13;;;;;;;7.28;4.85;;;;;;;6.25;50.15;102605.50;4980547;28;19918;-66
2022/03/07 11:07:41;;;;;;;6.43;4.47;;;;;;;6.20;49.33;102607.44;4976544;28;20046;-67
2022/03/07 11:10:09;;;;;;;7.40;5.18;;;;;;;6.10;49.30;102600.47;4989267;28;20031;-73
2022/03/07 11:12:35;;;;;;;8.63;4.78;;;;;;;6.11;50.17;102608.56;5004276;28;20034;-73
2022/03/07 11:15:08;;;;;;;6.43;4.28;;;;;;;6.12;48.65;102609.44;4981024;28;20038;-73